sensor_id;sensor_type;location;lat;lon;timestamp;pressure;altitude;pressure_sealevel;temperature;humidity
59272;BME280;45043;51.068;7.026;2023-04-21T00:01:19;100197.91;;;6.69;56.34
59272;BME280;45043;51.068;7.026;2023-04-21T00:04:19;100198.38;;;6.73;56.32
59272;BME280;45043;51.068;7.026;2023-04-21T00:07:20;100192.28;;;6.72;56.06
59272;BME280;45043;51.068;7.026;2023-04-21T00:10:21;100188.66;;;6.73;56.33
59272;BME280;45043;51.068;7.026;2023-04-21T00:13:23;100171.16;;;6.72;56.41
59272;BME280;45043;51.068;7.026;2023-04-21T00:16:23;100169.44;;;6.65;56.30
59272;BME280;45043;51.068;7.026;2023-04-21T00:19:23;100178.22;;;6.57;56.62
59272;BME280;45043;51.068;7.026;2023-04-21T00:22:25;100177.69;;;6.61;56.70
59272;BME280;45043;51.068;7.026;2023-04-21T00:25:25;100175.88;;;6.62;56.95
59272;BME280;45043;51.068;7.026;2023-04-21T00:28:26;100165.13;;;6.63;56.86
59272;BME280;45043;51.068;7.026;2023-04-21T00:31:26;100153.59;;;6.65;56.80
59272;BME280;45043;51.068;7.026;2023-04-21T00:34:27;100160.03;;;6.62;56.89
59272;BME280;45043;51.068;7.026;2023-04-21T00:37:27;100164.84;;;6.58;56.91
59272;BME280;45043;51.068;7.026;2023-04-21T00:40:28;100154.75;;;6.62;57.11
59272;BME280;45043;51.068;7.026;2023-04-21T00:43:28;100157.94;;;6.57;57.11
59272;BME280;45043;51.068;7.026;2023-04-21T00:46:29;100164.84;;;6.58;57.00
59272;BME280;45043;51.068;7.026;2023-04-21T00:49:30;100155.47;;;6.56;57.30
59272;BME280;45043;51.068;7.026;2023-04-21T00:52:31;100155.81;;;6.53;57.37
59272;BME280;45043;51.068;7.026;2023-04-21T00:55:35;100153.81;;;6.55;57.28
59272;BME280;45043;51.068;7.026;2023-04-21T00:58:39;100157.94;;;6.57;57.19
59272;BME280;45043;51.068;7.026;2023-04-21T01:01:41;100147.19;;;6.59;57.30
59272;BME280;45043;51.068;7.026;2023-04-21T01:04:43;100140.28;;;6.58;57.30
59272;BME280;45043;51.068;7.026;2023-04-21T01:07:44;100129.38;;;6.61;57.33
59272;BME280;45043;51.068;7.026;2023-04-21T01:10:46;100126.06;;;6.59;57.26
59272;BME280;45043;51.068;7.026;2023-04-21T01:13:46;100133.38;;;6.57;57.63
59272;BME280;45043;51.068;7.026;2023-04-21T01:16:47;100123.78;;;6.56;57.42
59272;BME280;45043;51.068;7.026;2023-04-21T01:19:48;100127.44;;;6.55;57.51
59272;BME280;45043;51.068;7.026;2023-04-21T01:22:49;100124.13;;;6.53;57.72
59272;BME280;45043;51.068;7.026;2023-04-21T01:25:51;100131.06;;;6.54;57.66
59272;BME280;45043;51.068;7.026;2023-04-21T01:28:55;100124.31;;;6.51;57.77
59272;BME280;45043;51.068;7.026;2023-04-21T01:31:56;100129.78;;;6.50;57.72
59272;BME280;45043;51.068;7.026;2023-04-21T01:34:58;100129.13;;;6.48;57.93
59272;BME280;45043;51.068;7.026;2023-04-21T01:37:59;100137.41;;;6.45;57.88
59272;BME280;45043;51.068;7.026;2023-04-21T01:41:01;100133.66;;;6.39;58.14
59272;BME280;45043;51.068;7.026;2023-04-21T01:44:01;100127.47;;;6.32;58.34
59272;BME280;45043;51.068;7.026;2023-04-21T01:47:01;100127.00;;;6.28;58.52
59272;BME280;45043;51.068;7.026;2023-04-21T01:50:02;100134.25;;;6.26;58.59
59272;BME280;45043;51.068;7.026;2023-04-21T01:53:03;100137.78;;;6.19;58.96
59272;BME280;45043;51.068;7.026;2023-04-21T01:56:03;100136.31;;;6.16;59.22
59272;BME280;45043;51.068;7.026;2023-04-21T01:59:04;100134.19;;;6.11;59.14
59272;BME280;45043;51.068;7.026;2023-04-21T02:02:05;100139.66;;;6.10;59.39
59272;BME280;45043;51.068;7.026;2023-04-21T02:05:07;100134.38;;;6.10;59.61
59272;BME280;45043;51.068;7.026;2023-04-21T02:08:07;100131.91;;;6.08;59.42
59272;BME280;45043;51.068;7.026;2023-04-21T02:11:08;100144.47;;;6.06;59.94
59272;BME280;45043;51.068;7.026;2023-04-21T02:14:08;100141.53;;;6.01;59.94
59272;BME280;45043;51.068;7.026;2023-04-21T02:17:09;100144.72;;;5.88;60.53
59272;BME280;45043;51.068;7.026;2023-04-21T02:20:09;100139.44;;;5.88;60.55
59272;BME280;45043;51.068;7.026;2023-04-21T02:23:12;100146.06;;;5.84;60.75
59272;BME280;45043;51.068;7.026;2023-04-21T02:26:12;100136.22;;;5.78;60.86
59272;BME280;45043;51.068;7.026;2023-04-21T02:29:13;100136.53;;;5.75;61.14
59272;BME280;45043;51.068;7.026;2023-04-21T02:32:13;100128.81;;;5.74;61.47
59272;BME280;45043;51.068;7.026;2023-04-21T02:35:13;100135.38;;;5.78;61.51
59272;BME280;45043;51.068;7.026;2023-04-21T02:38:14;100131.13;;;5.77;61.58
59272;BME280;45043;51.068;7.026;2023-04-21T02:41:15;100130.13;;;5.78;61.73
59272;BME280;45043;51.068;7.026;2023-04-21T02:44:16;100126.31;;;5.80;61.76
59272;BME280;45043;51.068;7.026;2023-04-21T02:47:18;100134.19;;;5.88;61.67
59272;BME280;45043;51.068;7.026;2023-04-21T02:50:18;100132.22;;;5.90;61.68
59272;BME280;45043;51.068;7.026;2023-04-21T02:53:19;100131.16;;;6.00;61.66
59272;BME280;45043;51.068;7.026;2023-04-21T02:56:20;100135.78;;;5.98;61.71
59272;BME280;45043;51.068;7.026;2023-04-21T02:59:20;100139.41;;;5.97;61.70
59272;BME280;45043;51.068;7.026;2023-04-21T03:02:21;100137.56;;;5.97;61.92
59272;BME280;45043;51.068;7.026;2023-04-21T03:05:22;100146.34;;;5.98;61.80
59272;BME280;45043;51.068;7.026;2023-04-21T03:08:23;100140.22;;;5.97;61.81
59272;BME280;45043;51.068;7.026;2023-04-21T03:11:24;100147.84;;;5.92;61.90
59272;BME280;45043;51.068;7.026;2023-04-21T03:14:26;100148.91;;;5.83;62.10
59272;BME280;45043;51.068;7.026;2023-04-21T03:17:27;100144.47;;;5.75;62.13
59272;BME280;45043;51.068;7.026;2023-04-21T03:20:27;100147.47;;;5.72;62.27
59272;BME280;45043;51.068;7.026;2023-04-21T03:23:28;100155.38;;;5.72;62.28
59272;BME280;45043;51.068;7.026;2023-04-21T03:26:28;100156.03;;;5.66;62.27
59272;BME280;45043;51.068;7.026;2023-04-21T03:29:28;100159.03;;;5.63;62.66
59272;BME280;45043;51.068;7.026;2023-04-21T03:32:29;100152.47;;;5.59;62.57
59272;BME280;45043;51.068;7.026;2023-04-21T03:35:30;100154.47;;;5.57;62.77
59272;BME280;45043;51.068;7.026;2023-04-21T03:38:31;100151.69;;;5.50;62.91
59272;BME280;45043;51.068;7.026;2023-04-21T03:41:32;100152.19;;;5.46;62.95
59272;BME280;45043;51.068;7.026;2023-04-21T03:44:33;100147.41;;;5.41;63.45
59272;BME280;45043;51.068;7.026;2023-04-21T03:47:36;100154.16;;;5.44;63.25
59272;BME280;45043;51.068;7.026;2023-04-21T03:50:37;100155.16;;;5.43;63.29
59272;BME280;45043;51.068;7.026;2023-04-21T03:53:38;100155.81;;;5.45;63.16
59272;BME280;45043;51.068;7.026;2023-04-21T03:56:38;100149.91;;;5.43;63.45
59272;BME280;45043;51.068;7.026;2023-04-21T03:59:38;100148.91;;;5.44;63.48
59272;BME280;45043;51.068;7.026;2023-04-21T04:02:39;100155.81;;;5.45;63.51
59272;BME280;45043;51.068;7.026;2023-04-21T04:05:39;100150.53;;;5.45;63.25
59272;BME280;45043;51.068;7.026;2023-04-21T04:08:40;100149.91;;;5.43;63.53
59272;BME280;45043;51.068;7.026;2023-04-21T04:11:40;100151.72;;;5.42;63.52
59272;BME280;45043;51.068;7.026;2023-04-21T04:14:41;100146.59;;;5.40;63.53
59272;BME280;45043;51.068;7.026;2023-04-21T04:17:41;100146.78;;;5.39;63.13
59272;BME280;45043;51.068;7.026;2023-04-21T04:20:42;100151.88;;;5.40;63.43
59272;BME280;45043;51.068;7.026;2023-04-21T04:23:42;100157.81;;;5.34;63.37
59272;BME280;45043;51.068;7.026;2023-04-21T04:26:43;100145.81;;;5.32;63.37
59272;BME280;45043;51.068;7.026;2023-04-21T04:29:44;100157.81;;;5.34;63.63
59272;BME280;45043;51.068;7.026;2023-04-21T04:32:45;100160.09;;;5.37;63.50
59272;BME280;45043;51.068;7.026;2023-04-21T04:35:46;100157.97;;;5.41;63.33
59272;BME280;45043;51.068;7.026;2023-04-21T04:38:47;100158.28;;;5.38;63.62
59272;BME280;45043;51.068;7.026;2023-04-21T04:41:47;100163.56;;;5.38;63.42
59272;BME280;45043;51.068;7.026;2023-04-21T04:44:52;100158.47;;;5.36;63.57
59272;BME280;45043;51.068;7.026;2023-04-21T04:47:52;100160.59;;;5.41;63.35
59272;BME280;45043;51.068;7.026;2023-04-21T04:50:53;100149.88;;;5.51;63.46
59272;BME280;45043;51.068;7.026;2023-04-21T04:53:54;100152.47;;;5.59;63.27
59272;BME280;45043;51.068;7.026;2023-04-21T04:56:54;100141.38;;;5.63;62.88
59272;BME280;45043;51.068;7.026;2023-04-21T04:59:56;100151.44;;;5.68;62.29
59272;BME280;45043;51.068;7.026;2023-04-21T05:02:56;100160.78;;;5.71;62.41
59272;BME280;45043;51.068;7.026;2023-04-21T05:05:56;100162.63;;;5.70;62.46
59272;BME280;45043;51.068;7.026;2023-04-21T05:08:57;100153.38;;;5.74;62.32
59272;BME280;45043;51.068;7.026;2023-04-21T05:11:58;100168.16;;;5.83;61.54
59272;BME280;45043;51.068;7.026;2023-04-21T05:14:59;100157.38;;;5.93;61.92
59272;BME280;45043;51.068;7.026;2023-04-21T05:17:59;100158.66;;;6.05;61.51
59272;BME280;45043;51.068;7.026;2023-04-21T05:21:00;100169.66;;;6.09;61.38
59272;BME280;45043;51.068;7.026;2023-04-21T05:24:00;100174.41;;;6.13;61.44
59272;BME280;45043;51.068;7.026;2023-04-21T05:27:01;100170.63;;;6.16;61.17
59272;BME280;45043;51.068;7.026;2023-04-21T05:30:04;100166.63;;;6.20;61.11
59272;BME280;45043;51.068;7.026;2023-04-21T05:33:05;100165.34;;;6.16;61.25
59272;BME280;45043;51.068;7.026;2023-04-21T05:36:07;100168.94;;;6.15;61.26
59272;BME280;45043;51.068;7.026;2023-04-21T05:39:08;100166.78;;;6.19;61.26
59272;BME280;45043;51.068;7.026;2023-04-21T05:42:09;100175.34;;;6.21;60.96
59272;BME280;45043;51.068;7.026;2023-04-21T05:45:10;100176.47;;;6.26;60.92
59272;BME280;45043;51.068;7.026;2023-04-21T05:48:11;100167.97;;;6.39;60.83
59272;BME280;45043;51.068;7.026;2023-04-21T05:51:12;100174.00;;;6.48;60.29
59272;BME280;45043;51.068;7.026;2023-04-21T05:54:14;100163.03;;;6.36;60.34
59272;BME280;45043;51.068;7.026;2023-04-21T05:57:15;100172.66;;;6.29;60.58
59272;BME280;45043;51.068;7.026;2023-04-21T06:00:17;100173.81;;;6.26;60.64
59272;BME280;45043;51.068;7.026;2023-04-21T06:03:17;100176.81;;;6.23;60.77
59272;BME280;45043;51.068;7.026;2023-04-21T06:06:17;100177.34;;;6.19;60.87
59272;BME280;45043;51.068;7.026;2023-04-21T06:09:18;100167.31;;;6.14;60.89
59272;BME280;45043;51.068;7.026;2023-04-21T06:12:19;100166.97;;;6.17;60.94
59272;BME280;45043;51.068;7.026;2023-04-21T06:15:19;100164.47;;;6.24;60.75
59272;BME280;45043;51.068;7.026;2023-04-21T06:18:20;100174.16;;;6.23;60.96
59272;BME280;45043;51.068;7.026;2023-04-21T06:21:20;100166.91;;;6.25;60.63
59272;BME280;45043;51.068;7.026;2023-04-21T06:24:21;100153.72;;;6.25;60.82
59272;BME280;45043;51.068;7.026;2023-04-21T06:27:24;100164.22;;;6.33;61.01
59272;BME280;45043;51.068;7.026;2023-04-21T06:30:24;100174.47;;;6.51;60.83
59272;BME280;45043;51.068;7.026;2023-04-21T06:33:25;100168.34;;;6.74;60.29
59272;BME280;45043;51.068;7.026;2023-04-21T06:36:26;100173.59;;;6.97;59.95
59272;BME280;45043;51.068;7.026;2023-04-21T06:39:26;100170.97;;;7.11;59.68
59272;BME280;45043;51.068;7.026;2023-04-21T06:42:27;100167.41;;;7.19;59.03
59272;BME280;45043;51.068;7.026;2023-04-21T06:45:28;100169.16;;;7.27;59.29
59272;BME280;45043;51.068;7.026;2023-04-21T06:48:29;100170.25;;;7.32;58.87
59272;BME280;45043;51.068;7.026;2023-04-21T06:51:30;100159.22;;;7.44;58.92
59272;BME280;45043;51.068;7.026;2023-04-21T06:54:31;100163.84;;;7.56;58.89
59272;BME280;45043;51.068;7.026;2023-04-21T06:57:31;100163.22;;;7.69;58.80
59272;BME280;45043;51.068;7.026;2023-04-21T07:00:32;100167.66;;;7.83;58.26
59272;BME280;45043;51.068;7.026;2023-04-21T07:03:33;100162.69;;;7.95;57.66
59272;BME280;45043;51.068;7.026;2023-04-21T07:06:33;100159.78;;;7.90;57.58
59272;BME280;45043;51.068;7.026;2023-04-21T07:09:33;100162.97;;;7.86;57.96
59272;BME280;45043;51.068;7.026;2023-04-21T07:12:34;100163.19;;;7.84;57.56
59272;BME280;45043;51.068;7.026;2023-04-21T07:15:34;100163.78;;;7.86;57.37
59272;BME280;45043;51.068;7.026;2023-04-21T07:18:35;100161.81;;;7.88;57.33
59272;BME280;45043;51.068;7.026;2023-04-21T07:21:35;100151.38;;;7.87;57.21
59272;BME280;45043;51.068;7.026;2023-04-21T07:24:36;100153.41;;;7.84;57.20
59272;BME280;45043;51.068;7.026;2023-04-21T07:27:37;100159.31;;;7.87;56.94
59272;BME280;45043;51.068;7.026;2023-04-21T07:30:37;100154.44;;;7.83;57.24
59272;BME280;45043;51.068;7.026;2023-04-21T07:33:38;100173.19;;;7.89;56.90
59272;BME280;45043;51.068;7.026;2023-04-21T07:36:38;100157.13;;;7.90;57.08
59272;BME280;45043;51.068;7.026;2023-04-21T07:39:39;100157.53;;;7.87;56.93
59272;BME280;45043;51.068;7.026;2023-04-21T07:42:39;100158.06;;;7.82;57.13
59272;BME280;45043;51.068;7.026;2023-04-21T07:45:40;100156.69;;;7.87;57.17
59272;BME280;45043;51.068;7.026;2023-04-21T07:48:40;100161.09;;;7.79;57.26
59272;BME280;45043;51.068;7.026;2023-04-21T07:51:41;100162.09;;;7.78;57.40
59272;BME280;45043;51.068;7.026;2023-04-21T07:54:41;100172.75;;;7.85;57.06
59272;BME280;45043;51.068;7.026;2023-04-21T07:57:41;100160.63;;;7.91;56.73
59272;BME280;45043;51.068;7.026;2023-04-21T08:00:42;100169.44;;;7.98;56.61
59272;BME280;45043;51.068;7.026;2023-04-21T08:03:42;100166.94;;;8.11;56.85
59272;BME280;45043;51.068;7.026;2023-04-21T08:06:43;100173.09;;;8.18;56.84
59272;BME280;45043;51.068;7.026;2023-04-21T08:09:44;100172.41;;;8.24;56.79
59272;BME280;45043;51.068;7.026;2023-04-21T08:12:44;100163.97;;;8.36;56.69
59272;BME280;45043;51.068;7.026;2023-04-21T08:15:45;100156.31;;;8.47;56.47
59272;BME280;45043;51.068;7.026;2023-04-21T08:18:45;100154.63;;;8.61;56.25
59272;BME280;45043;51.068;7.026;2023-04-21T08:21:46;100150.84;;;8.77;56.13
59272;BME280;45043;51.068;7.026;2023-04-21T08:24:46;100140.78;;;8.94;55.71
59272;BME280;45043;51.068;7.026;2023-04-21T08:27:47;100154.06;;;9.00;55.41
59272;BME280;45043;51.068;7.026;2023-04-21T08:30:47;100150.28;;;9.10;55.22
59272;BME280;45043;51.068;7.026;2023-04-21T08:33:48;100144.97;;;9.16;55.38
59272;BME280;45043;51.068;7.026;2023-04-21T08:36:48;100146.91;;;9.29;55.07
59272;BME280;45043;51.068;7.026;2023-04-21T08:39:49;100146.34;;;9.40;55.15
59272;BME280;45043;51.068;7.026;2023-04-21T08:42:53;100150.50;;;9.49;54.62
59272;BME280;45043;51.068;7.026;2023-04-21T08:45:55;100146.25;;;9.55;54.50
59272;BME280;45043;51.068;7.026;2023-04-21T08:48:57;100152.00;;;9.65;54.40
59272;BME280;45043;51.068;7.026;2023-04-21T08:51:59;100149.56;;;9.70;54.45
59272;BME280;45043;51.068;7.026;2023-04-21T08:55:00;100141.00;;;9.68;54.27
59272;BME280;45043;51.068;7.026;2023-04-21T08:58:03;100145.72;;;9.73;54.25
59272;BME280;45043;51.068;7.026;2023-04-21T09:01:04;100141.22;;;9.73;54.32
59272;BME280;45043;51.068;7.026;2023-04-21T09:04:17;100150.63;;;9.83;54.14
59272;BME280;45043;51.068;7.026;2023-04-21T09:07:32;100148.44;;;9.99;54.12
59272;BME280;45043;51.068;7.026;2023-04-21T09:10:32;100159.91;;;10.20;53.82
59272;BME280;45043;51.068;7.026;2023-04-21T09:13:36;100152.16;;;10.18;54.01
59272;BME280;45043;51.068;7.026;2023-04-21T09:16:37;100159.50;;;10.10;54.18
59272;BME280;45043;51.068;7.026;2023-04-21T09:19:37;100145.78;;;10.13;54.30
59272;BME280;45043;51.068;7.026;2023-04-21T09:22:37;100147.00;;;10.04;54.59
59272;BME280;45043;51.068;7.026;2023-04-21T09:25:39;100152.72;;;10.00;54.72
59272;BME280;45043;51.068;7.026;2023-04-21T09:28:42;100141.94;;;10.15;54.51
59272;BME280;45043;51.068;7.026;2023-04-21T09:31:43;100142.16;;;10.34;54.26
59272;BME280;45043;51.068;7.026;2023-04-21T09:34:44;100142.78;;;10.49;53.68
59272;BME280;45043;51.068;7.026;2023-04-21T09:37:45;100139.94;;;10.44;54.07
59272;BME280;45043;51.068;7.026;2023-04-21T09:40:45;100142.19;;;10.47;54.11
59272;BME280;45043;51.068;7.026;2023-04-21T09:43:47;100127.44;;;10.38;54.04
59272;BME280;45043;51.068;7.026;2023-04-21T09:46:49;100125.84;;;10.50;54.22
59272;BME280;45043;51.068;7.026;2023-04-21T09:49:51;100118.09;;;10.68;53.79
59272;BME280;45043;51.068;7.026;2023-04-21T09:52:53;100116.63;;;10.86;53.41
59272;BME280;45043;51.068;7.026;2023-04-21T09:55:55;100117.19;;;11.08;53.12
59272;BME280;45043;51.068;7.026;2023-04-21T09:59:00;100108.38;;;11.20;52.17
59272;BME280;45043;51.068;7.026;2023-04-21T10:02:04;100105.09;;;11.18;52.39
59272;BME280;45043;51.068;7.026;2023-04-21T10:05:06;100103.91;;;11.14;52.37
59272;BME280;45043;51.068;7.026;2023-04-21T10:08:07;100104.88;;;11.27;51.83
59272;BME280;45043;51.068;7.026;2023-04-21T10:11:11;100106.44;;;11.48;51.84
59272;BME280;45043;51.068;7.026;2023-04-21T10:14:12;100101.25;;;11.59;51.43
59272;BME280;45043;51.068;7.026;2023-04-21T10:17:13;100087.13;;;11.65;51.03
59272;BME280;45043;51.068;7.026;2023-04-21T10:20:14;100091.47;;;11.53;50.87
59272;BME280;45043;51.068;7.026;2023-04-21T10:23:42;100090.78;;;11.64;50.71
59272;BME280;45043;51.068;7.026;2023-04-21T10:26:43;100079.91;;;11.73;50.75
59272;BME280;45043;51.068;7.026;2023-04-21T10:29:43;100072.69;;;12.43;48.60
59272;BME280;45043;51.068;7.026;2023-04-21T10:32:44;100076.16;;;12.18;49.64
59272;BME280;45043;51.068;7.026;2023-04-21T10:35:59;100067.28;;;12.00;49.49
59272;BME280;45043;51.068;7.026;2023-04-21T10:39:01;100075.31;;;11.93;49.42
59272;BME280;45043;51.068;7.026;2023-04-21T10:45:12;100057.88;;;11.97;49.35
59272;BME280;45043;51.068;7.026;2023-04-21T10:48:12;100048.41;;;12.01;49.29
59272;BME280;45043;51.068;7.026;2023-04-21T10:51:13;100038.09;;;12.11;49.08
59272;BME280;45043;51.068;7.026;2023-04-21T10:54:14;100039.41;;;12.02;48.53
59272;BME280;45043;51.068;7.026;2023-04-21T10:57:19;100032.88;;;11.98;48.51
59272;BME280;45043;51.068;7.026;2023-04-21T11:00:22;100036.88;;;12.14;48.24
59272;BME280;45043;51.068;7.026;2023-04-21T11:03:23;100031.97;;;12.36;48.26
59272;BME280;45043;51.068;7.026;2023-04-21T11:06:23;100025.16;;;12.40;47.89
59272;BME280;45043;51.068;7.026;2023-04-21T11:09:24;100022.34;;;12.53;46.74
59272;BME280;45043;51.068;7.026;2023-04-21T11:12:27;100019.13;;;12.70;46.42
59272;BME280;45043;51.068;7.026;2023-04-21T11:15:29;100010.88;;;12.78;46.47
59272;BME280;45043;51.068;7.026;2023-04-21T11:18:37;100007.97;;;12.79;45.83
59272;BME280;45043;51.068;7.026;2023-04-21T11:21:39;100001.84;;;12.72;45.78
59272;BME280;45043;51.068;7.026;2023-04-21T11:24:43;99997.41;;;12.91;45.88
59272;BME280;45043;51.068;7.026;2023-04-21T11:27:53;99984.97;;;13.15;45.80
59272;BME280;45043;51.068;7.026;2023-04-21T11:30:54;99990.34;;;13.27;45.51
59272;BME280;45043;51.068;7.026;2023-04-21T11:33:54;99982.03;;;13.35;45.99
59272;BME280;45043;51.068;7.026;2023-04-21T11:36:55;99977.78;;;13.46;44.92
59272;BME280;45043;51.068;7.026;2023-04-21T11:39:59;99982.44;;;13.50;44.57
59272;BME280;45043;51.068;7.026;2023-04-21T11:43:02;99968.69;;;13.65;44.15
59272;BME280;45043;51.068;7.026;2023-04-21T11:46:23;99971.00;;;13.61;43.90
59272;BME280;45043;51.068;7.026;2023-04-21T11:49:25;99974.06;;;13.77;43.91
59272;BME280;45043;51.068;7.026;2023-04-21T11:52:31;99973.97;;;13.95;43.59
59272;BME280;45043;51.068;7.026;2023-04-21T11:55:32;99966.78;;;14.07;42.91
59272;BME280;45043;51.068;7.026;2023-04-21T11:58:33;99959.94;;;14.00;43.04
59272;BME280;45043;51.068;7.026;2023-04-21T12:01:34;99947.47;;;13.82;42.48
59272;BME280;45043;51.068;7.026;2023-04-21T12:04:34;99955.03;;;13.73;43.16
59272;BME280;45043;51.068;7.026;2023-04-21T12:07:37;99947.59;;;13.75;43.21
59272;BME280;45043;51.068;7.026;2023-04-21T12:10:43;99932.25;;;13.71;42.94
59272;BME280;45043;51.068;7.026;2023-04-21T12:13:43;99941.22;;;13.76;42.66
59272;BME280;45043;51.068;7.026;2023-04-21T12:16:48;99937.63;;;13.94;42.63
59272;BME280;45043;51.068;7.026;2023-04-21T12:19:50;99947.03;;;14.08;42.70
59272;BME280;45043;51.068;7.026;2023-04-21T12:22:50;99936.47;;;14.14;43.06
59272;BME280;45043;51.068;7.026;2023-04-21T12:25:52;99926.94;;;14.18;42.75
59272;BME280;45043;51.068;7.026;2023-04-21T12:28:53;99931.66;;;14.39;42.54
59272;BME280;45043;51.068;7.026;2023-04-21T12:31:53;99917.34;;;14.57;42.04
59272;BME280;45043;51.068;7.026;2023-04-21T12:34:54;99924.69;;;14.62;41.71
59272;BME280;45043;51.068;7.026;2023-04-21T12:37:55;99913.06;;;14.56;41.49
59272;BME280;45043;51.068;7.026;2023-04-21T12:40:55;99920.34;;;14.61;41.62
59272;BME280;45043;51.068;7.026;2023-04-21T12:43:56;99917.97;;;14.47;41.72
59272;BME280;45043;51.068;7.026;2023-04-21T12:46:57;99921.09;;;14.44;41.42
59272;BME280;45043;51.068;7.026;2023-04-21T12:49:57;99919.13;;;14.51;41.09
59272;BME280;45043;51.068;7.026;2023-04-21T12:52:58;99911.78;;;14.58;41.41
59272;BME280;45043;51.068;7.026;2023-04-21T12:55:58;99910.97;;;14.58;41.48
59272;BME280;45043;51.068;7.026;2023-04-21T12:58:59;99912.50;;;14.66;41.30
59272;BME280;45043;51.068;7.026;2023-04-21T13:02:00;99909.72;;;14.89;40.76
59272;BME280;45043;51.068;7.026;2023-04-21T13:05:00;99901.78;;;14.94;40.97
59272;BME280;45043;51.068;7.026;2023-04-21T13:08:01;99888.78;;;15.15;40.46
59272;BME280;45043;51.068;7.026;2023-04-21T13:11:01;99890.34;;;15.44;39.99
59272;BME280;45043;51.068;7.026;2023-04-21T13:14:02;99876.59;;;15.52;39.93
59272;BME280;45043;51.068;7.026;2023-04-21T13:17:03;99890.25;;;15.51;40.03
59272;BME280;45043;51.068;7.026;2023-04-21T13:20:04;99874.50;;;15.54;39.56
59272;BME280;45043;51.068;7.026;2023-04-21T13:23:06;99874.97;;;15.68;39.24
59272;BME280;45043;51.068;7.026;2023-04-21T13:26:08;99883.16;;;15.78;39.11
59272;BME280;45043;51.068;7.026;2023-04-21T13:29:08;99867.66;;;15.81;38.89
59272;BME280;45043;51.068;7.026;2023-04-21T13:32:09;99865.03;;;15.86;37.85
59272;BME280;45043;51.068;7.026;2023-04-21T13:35:10;99867.59;;;15.97;37.25
59272;BME280;45043;51.068;7.026;2023-04-21T13:38:11;99862.28;;;16.19;37.00
59272;BME280;45043;51.068;7.026;2023-04-21T13:41:11;99856.31;;;16.34;36.62
59272;BME280;45043;51.068;7.026;2023-04-21T13:44:12;99837.53;;;16.56;36.36
59272;BME280;45043;51.068;7.026;2023-04-21T13:47:12;99851.53;;;16.58;35.36
59272;BME280;45043;51.068;7.026;2023-04-21T13:50:13;99843.94;;;16.77;35.59
59272;BME280;45043;51.068;7.026;2023-04-21T13:53:13;99831.78;;;16.96;35.15
59272;BME280;45043;51.068;7.026;2023-04-21T13:56:15;99832.03;;;17.22;35.25
59272;BME280;45043;51.068;7.026;2023-04-21T13:59:16;99821.00;;;17.56;34.82
59272;BME280;45043;51.068;7.026;2023-04-21T14:02:17;99813.22;;;18.02;34.64
59272;BME280;45043;51.068;7.026;2023-04-21T14:05:17;99816.34;;;18.46;34.16
59272;BME280;45043;51.068;7.026;2023-04-21T14:08:17;99812.44;;;18.84;33.11
59272;BME280;45043;51.068;7.026;2023-04-21T14:11:18;99807.47;;;18.40;33.00
59272;BME280;45043;51.068;7.026;2023-04-21T14:14:19;99808.22;;;17.73;33.36
59272;BME280;45043;51.068;7.026;2023-04-21T14:17:19;99801.44;;;17.23;33.34
59272;BME280;45043;51.068;7.026;2023-04-21T14:20:20;99809.59;;;17.06;34.12
59272;BME280;45043;51.068;7.026;2023-04-21T14:23:20;99799.88;;;17.00;34.60
59272;BME280;45043;51.068;7.026;2023-04-21T14:26:20;99798.19;;;16.62;34.91
59272;BME280;45043;51.068;7.026;2023-04-21T14:29:21;99788.78;;;16.59;34.95
59272;BME280;45043;51.068;7.026;2023-04-21T14:32:22;99791.47;;;17.18;34.61
59272;BME280;45043;51.068;7.026;2023-04-21T14:35:22;99784.84;;;17.31;34.14
59272;BME280;45043;51.068;7.026;2023-04-21T14:38:22;99770.66;;;17.36;33.97
59272;BME280;45043;51.068;7.026;2023-04-21T14:41:23;99779.00;;;17.39;33.84
59272;BME280;45043;51.068;7.026;2023-04-21T14:44:24;99781.28;;;18.10;33.01
59272;BME280;45043;51.068;7.026;2023-04-21T14:47:24;99775.16;;;18.35;32.70
59272;BME280;45043;51.068;7.026;2023-04-21T14:50:25;99757.22;;;18.77;32.34
59272;BME280;45043;51.068;7.026;2023-04-21T14:53:25;99754.56;;;18.82;32.45
59272;BME280;45043;51.068;7.026;2023-04-21T14:56:26;99742.19;;;18.86;31.88
59272;BME280;45043;51.068;7.026;2023-04-21T14:59:26;99743.47;;;18.48;31.00
59272;BME280;45043;51.068;7.026;2023-04-21T15:02:27;99741.56;;;18.38;31.98
59272;BME280;45043;51.068;7.026;2023-04-21T15:05:28;99737.50;;;18.30;32.12
59272;BME280;45043;51.068;7.026;2023-04-21T15:08:29;99751.63;;;17.95;32.56
59272;BME280;45043;51.068;7.026;2023-04-21T15:11:30;99733.59;;;17.85;33.01
59272;BME280;45043;51.068;7.026;2023-04-21T15:14:30;99728.16;;;18.84;31.67
59272;BME280;45043;51.068;7.026;2023-04-21T15:17:31;99725.69;;;19.28;31.77
59272;BME280;45043;51.068;7.026;2023-04-21T15:20:32;99734.72;;;19.89;30.55
59272;BME280;45043;51.068;7.026;2023-04-21T15:23:32;99713.28;;;20.57;29.83
59272;BME280;45043;51.068;7.026;2023-04-21T15:26:35;99708.53;;;20.78;29.44
59272;BME280;45043;51.068;7.026;2023-04-21T15:29:36;99724.09;;;20.91;29.48
59272;BME280;45043;51.068;7.026;2023-04-21T15:32:36;99708.00;;;21.34;28.92
59272;BME280;45043;51.068;7.026;2023-04-21T15:35:37;99704.38;;;20.96;28.66
59272;BME280;45043;51.068;7.026;2023-04-21T15:38:37;99699.59;;;20.82;29.29
59272;BME280;45043;51.068;7.026;2023-04-21T15:41:39;99691.31;;;20.69;29.30
59272;BME280;45043;51.068;7.026;2023-04-21T15:44:39;99690.41;;;20.83;28.83
59272;BME280;45043;51.068;7.026;2023-04-21T15:47:40;99674.13;;;20.94;29.09
59272;BME280;45043;51.068;7.026;2023-04-21T15:50:40;99673.34;;;21.41;28.25
59272;BME280;45043;51.068;7.026;2023-04-21T15:53:41;99664.09;;;21.71;27.60
59272;BME280;45043;51.068;7.026;2023-04-21T15:56:46;99666.88;;;21.66;27.51
59272;BME280;45043;51.068;7.026;2023-04-21T15:59:47;99662.97;;;22.15;26.97
59272;BME280;45043;51.068;7.026;2023-04-21T16:02:48;99649.66;;;22.84;26.46